This is the latest recevied weather packets stored in our database for station/object EA3DJ-10. If no packets are shown the sender has not sent any weather packets the latest 10 day(s).
| Time | Temp. | Humidity | Pressure | Rain* | Wind** | Luminosity | Snow |
|---|---|---|---|---|---|---|---|
| 1787619486 | 28.33° C | 42% | 1012.4 hPa | - | - | - | - |
| 1787618286 | 28.33° C | 42% | 1012.5 hPa | - | - | - | - |
| 1787617086 | 28.33° C | 42% | 1012.6 hPa | - | - | - | - |
| 1787615886 | 30.56° C | 36% | 1012.7 hPa | - | - | - | - |
| 1787614685 | 32.22° C | 32% | 1012.6 hPa | - | - | - | - |
| 1787613485 | 27.22° C | 39% | 1012.9 hPa | - | - | - | - |
| 1787612285 | 26.11° C | 39% | 1012.8 hPa | - | - | - | - |
| 1787611085 | 27.78° C | 41% | 1012.6 hPa | - | - | - | - |
| 1787609885 | 27.78° C | 41% | 1012.6 hPa | - | - | - | - |
| 1787608685 | 27.22° C | 39% | 1012.5 hPa | - | - | - | - |
| 1787607485 | 25.56° C | 38% | 1012.5 hPa | - | - | - | - |
| 1787606285 | 27.78° C | 42% | 1012.3 hPa | - | - | - | - |
| 1787605085 | 27.78° C | 41% | 1012.5 hPa | - | - | - | - |
| 1787603879 | 27.22° C | 41% | 1012.4 hPa | - | - | - | - |
| 1787602679 | 27.22° C | 39% | 1012.5 hPa | - | - | - | - |
| 1787601479 | 26.67° C | 38% | 1012.3 hPa | - | - | - | - |
| 1787600279 | 26.11° C | 38% | 1012 hPa | - | - | - | - |
| 1787599079 | 27.22° C | 41% | 1011.8 hPa | - | - | - | - |
| 1787597878 | 27.22° C | 38% | 1011.6 hPa | - | - | - | - |
| 1787596678 | 26.67° C | 36% | 1011.6 hPa | - | - | - | - |
| 1787595478 | 26.67° C | 36% | 1012 hPa | - | - | - | - |
| 1787594278 | 27.22° C | 37% | 1011.9 hPa | - | - | - | - |
| 1787593078 | 33.89° C | 28% | 1011 hPa | - | - | - | - |
| 1787591878 | 35° C | 27% | 1010.7 hPa | - | - | - | - |
| 1787590678 | 32.22° C | 34% | 1011.7 hPa | - | - | - | - |
* Rain since midnight (hover to see other rain measurements)
** Current wind speed in m/s (hover to see current wind gust speed)